Time;durP1;ratioP1;P1;durP2;ratioP2;P2;SDS_P1;SDS_P2;PMS_P1;PMS_P2;Temp;Humidity;BMP_temperature;BMP_pressure;BME280_temperature;BME280_humidity;BME280_pressure;Samples;Min_cycle;Max_cycle;Signal;HPM_P1;HPM_P2
2023/05/24 00:00:36;;;;;;;15.88;6.65;;;;;;;5.25;100.00;102338.66;5094553;28;20593;-46
2023/05/24 00:03:03;;;;;;;17.27;6.43;;;;;;;5.32;100.00;102339.09;5094144;28;20024;-49
2023/05/24 00:05:29;;;;;;;29.65;7.47;;;;;;;5.32;100.00;102334.91;5094301;28;20035;-46
2023/05/24 00:07:55;;;;;;;26.27;6.90;;;;;;;5.35;100.00;102329.13;5094576;28;20031;-50
2023/05/24 00:10:20;;;;;;;21.13;6.38;;;;;;;5.18;100.00;102323.63;5093828;28;20032;-46
2023/05/24 00:12:46;;;;;;;16.35;5.47;;;;;;;5.31;100.00;102327.09;5094352;28;20032;-46
2023/05/24 00:15:11;;;;;;;15.50;6.32;;;;;;;5.32;100.00;102323.75;5094535;28;20047;-46
2023/05/24 00:17:39;;;;;;;19.27;6.68;;;;;;;5.37;100.00;102322.44;5093382;28;20040;-48
2023/05/24 00:20:13;;;;;;;19.92;6.43;;;;;;;5.28;100.00;102320.13;5094349;28;20055;-48
2023/05/24 00:22:39;;;;;;;17.73;6.03;;;;;;;5.28;100.00;102313.31;5093860;28;20056;-49
2023/05/24 00:25:06;;;;;;;22.10;6.57;;;;;;;5.36;100.00;102311.34;5094016;28;20024;-47
2023/05/24 00:27:31;;;;;;;19.77;6.35;;;;;;;5.39;100.00;102311.56;5093884;28;20368;-45
2023/05/24 00:29:57;;;;;;;19.80;6.82;;;;;;;5.31;100.00;102316.88;5093714;28;20027;-51
2023/05/24 00:32:22;;;;;;;17.92;6.38;;;;;;;5.25;100.00;102308.00;5093624;28;20414;-45
2023/05/24 00:34:47;;;;;;;20.40;5.90;;;;;;;5.16;100.00;102306.41;5094311;28;20023;-47
2023/05/24 00:37:13;;;;;;;19.60;6.80;;;;;;;5.18;100.00;102302.31;5093660;28;20035;-48
2023/05/24 00:39:39;;;;;;;21.23;6.00;;;;;;;5.17;100.00;102306.50;5093672;28;20051;-48
2023/05/24 00:42:04;;;;;;;19.52;5.95;;;;;;;5.23;100.00;102303.53;5094078;28;20054;-51
2023/05/24 00:44:30;;;;;;;22.50;6.18;;;;;;;5.16;100.00;102308.97;5093106;28;20027;-47
2023/05/24 00:46:55;;;;;;;19.90;6.05;;;;;;;5.10;100.00;102304.28;5093583;28;20058;-48
2023/05/24 00:49:22;;;;;;;17.77;6.05;;;;;;;5.05;100.00;102303.06;5093762;28;20073;-47
2023/05/24 00:51:48;;;;;;;20.60;6.90;;;;;;;5.08;100.00;102308.38;5093410;28;20049;-50
2023/05/24 00:54:14;;;;;;;24.88;7.00;;;;;;;4.99;100.00;102302.56;5093634;28;20110;-46
2023/05/24 00:56:41;;;;;;;13.20;5.72;;;;;;;4.93;100.00;102300.44;5093628;28;20056;-48
2023/05/24 00:59:06;;;;;;;15.13;5.90;;;;;;;4.88;100.00;102301.75;5093185;28;20055;-48
2023/05/24 01:01:34;;;;;;;24.60;6.38;;;;;;;4.89;100.00;102295.88;5093109;28;20051;-47
2023/05/24 01:03:59;;;;;;;21.15;6.25;;;;;;;4.84;100.00;102292.97;5093688;28;20059;-49
2023/05/24 01:06:25;;;;;;;20.75;6.18;;;;;;;4.84;100.00;102292.06;5092667;28;20059;-50
2023/05/24 01:09:18;;;;;;;14.38;6.05;;;;;;;4.87;100.00;102288.09;5093484;28;20032;-46
2023/05/24 01:12:03;;;;;;;17.13;6.30;;;;;;;4.93;100.00;102291.13;5093138;28;20032;-46
2023/05/24 01:15:07;;;;;;;19.00;6.57;;;;;;;4.86;100.00;102290.53;5093108;28;20027;-48
2023/05/24 01:18:10;;;;;;;18.05;6.28;;;;;;;4.78;100.00;102287.41;5093069;28;20044;-46
2023/05/24 01:20:37;;;;;;;19.60;6.85;;;;;;;4.78;100.00;102282.28;5089673;28;20503;-47
2023/05/24 01:23:30;;;;;;;15.13;6.47;;;;;;;4.77;100.00;102285.63;5093374;28;20024;-47
2023/05/24 01:26:20;;;;;;;17.58;6.60;;;;;;;4.64;100.00;102277.78;5092642;28;20073;-49
2023/05/24 01:28:47;;;;;;;16.67;6.05;;;;;;;4.53;100.00;102282.06;5092937;28;20020;-47
2023/05/24 01:31:14;;;;;;;20.75;6.70;;;;;;;4.65;100.00;102284.66;5093414;28;20024;-49
2023/05/24 01:33:41;;;;;;;16.25;7.10;;;;;;;4.63;100.00;102283.66;5092362;28;20023;-46
2023/05/24 01:36:06;;;;;;;21.27;6.78;;;;;;;4.69;100.00;102276.50;5092903;28;20020;-46
2023/05/24 01:38:32;;;;;;;13.38;6.22;;;;;;;4.52;100.00;102282.81;5092974;28;20353;-49
2023/05/24 01:41:04;;;;;;;19.08;7.22;;;;;;;4.56;100.00;102285.75;5092552;28;20039;-46
2023/05/24 01:44:04;;;;;;;21.85;6.68;;;;;;;4.53;100.00;102280.41;5092996;28;20024;-48
2023/05/24 01:46:36;;;;;;;18.75;7.10;;;;;;;4.55;100.00;102268.63;5092504;28;20028;-49
2023/05/24 01:49:21;;;;;;;22.67;7.80;;;;;;;4.56;100.00;102272.97;5092444;28;20426;-48
2023/05/24 01:51:52;;;;;;;14.98;6.75;;;;;;;4.57;100.00;102268.75;5093070;28;20016;-46
2023/05/24 01:54:24;;;;;;;21.80;6.47;;;;;;;4.52;100.00;102268.41;5092245;28;20107;-47
2023/05/24 01:56:52;;;;;;;17.90;6.38;;;;;;;4.43;100.00;102272.81;5092806;28;20016;-48
2023/05/24 01:59:18;;;;;;;20.58;6.97;;;;;;;4.36;100.00;102278.22;5092711;28;20020;-47
2023/05/24 02:01:45;;;;;;;20.25;7.25;;;;;;;4.41;100.00;102269.25;5092246;28;20035;-46
2023/05/24 02:04:11;;;;;;;16.50;6.55;;;;;;;4.35;100.00;102273.88;5092844;28;20028;-49
2023/05/24 02:06:37;;;;;;;18.92;7.15;;;;;;;4.20;100.00;102284.66;5092602;28;20028;-47
2023/05/24 02:09:02;;;;;;;20.40;7.40;;;;;;;4.26;100.00;102284.25;5092362;28;20039;-48
2023/05/24 02:11:27;;;;;;;16.38;6.28;;;;;;;4.15;100.00;102285.97;5092231;28;20016;-45
2023/05/24 02:13:52;;;;;;;21.60;7.10;;;;;;;4.23;100.00;102282.34;5092820;28;20490;-45
2023/05/24 02:16:18;;;;;;;22.83;7.65;;;;;;;4.24;100.00;102285.81;5093329;28;20032;-48
2023/05/24 02:18:45;;;;;;;19.83;6.85;;;;;;;4.08;100.00;102284.59;5096455;28;20487;-49
2023/05/24 02:21:11;;;;;;;14.32;6.30;;;;;;;4.01;100.00;102287.41;5096925;28;20020;-46
2023/05/24 02:23:37;;;;;;;19.92;6.45;;;;;;;4.09;100.00;102288.03;5095986;28;20035;-48
2023/05/24 02:26:02;;;;;;;17.42;6.10;;;;;;;4.05;100.00;102288.56;5096347;28;20056;-48
2023/05/24 02:28:30;;;;;;;22.38;8.45;;;;;;;4.07;100.00;102297.22;5096347;28;20024;-48
2023/05/24 02:30:56;;;;;;;14.63;6.70;;;;;;;4.04;100.00;102291.88;5095913;28;20073;-48
2023/05/24 02:33:24;;;;;;;16.75;7.13;;;;;;;4.03;100.00;102295.19;5095874;28;20024;-46
2023/05/24 02:35:49;;;;;;;15.32;7.05;;;;;;;3.91;100.00;102296.00;5096652;28;20035;-46
2023/05/24 02:38:15;;;;;;;20.75;6.57;;;;;;;3.89;100.00;102294.97;5095828;28;20024;-49
2023/05/24 02:40:40;;;;;;;19.50;7.13;;;;;;;3.81;100.00;102290.94;5096547;28;20107;-49
2023/05/24 02:43:05;;;;;;;15.68;6.82;;;;;;;3.76;100.00;102295.66;5095853;28;20099;-48
2023/05/24 02:45:31;;;;;;;20.77;7.57;;;;;;;3.74;100.00;102296.31;5095657;28;20086;-46
2023/05/24 02:47:56;;;;;;;15.57;7.55;;;;;;;3.68;100.00;102294.16;5096313;28;20024;-46
2023/05/24 02:50:21;;;;;;;15.80;6.75;;;;;;;3.56;100.00;102299.13;5095204;28;20038;-46
2023/05/24 02:52:47;;;;;;;20.25;6.40;;;;;;;3.55;100.00;102297.38;5096020;28;20016;-46
2023/05/24 02:55:12;;;;;;;17.77;8.10;;;;;;;3.62;100.00;102297.09;5095923;28;20042;-45
2023/05/24 02:57:37;;;;;;;16.95;8.15;;;;;;;3.64;100.00;102294.66;5095408;28;20046;-46
2023/05/24 03:00:08;;;;;;;22.88;7.05;;;;;;;3.57;100.00;102303.47;5095711;28;20020;-47
2023/05/24 03:02:37;;;;;;;16.35;7.22;;;;;;;3.55;100.00;102299.00;5095701;28;20475;-49
2023/05/24 03:05:02;;;;;;;15.63;7.13;;;;;;;3.59;100.00;102291.75;5095422;28;20062;-46
2023/05/24 03:07:28;;;;;;;15.35;7.43;;;;;;;3.48;100.00;102297.63;5095306;28;20059;-47
2023/05/24 03:09:53;;;;;;;16.45;7.53;;;;;;;3.48;100.00;102299.28;5095772;28;20032;-48
2023/05/24 03:12:18;;;;;;;17.48;8.38;;;;;;;3.51;100.00;102295.34;5094928;28;20031;-46
2023/05/24 03:14:43;;;;;;;25.58;8.90;;;;;;;3.63;100.00;102293.78;5095339;28;20027;-46
2023/05/24 03:17:09;;;;;;;19.63;8.55;;;;;;;3.61;100.00;102282.56;5095605;28;20052;-46
2023/05/24 03:19:34;;;;;;;23.27;8.45;;;;;;;3.56;100.00;102283.84;5094933;28;20020;-49
2023/05/24 03:22:00;;;;;;;18.65;8.77;;;;;;;3.61;100.00;102285.09;5095382;28;20016;-46
2023/05/24 03:24:25;;;;;;;21.75;8.93;;;;;;;3.62;100.00;102286.88;5095201;28;20023;-46
2023/05/24 03:26:50;;;;;;;18.85;8.57;;;;;;;3.68;100.00;102277.94;5094311;28;20085;-48
2023/05/24 03:29:16;;;;;;;21.85;8.38;;;;;;;3.55;100.00;102288.81;5093998;28;20040;-46
2023/05/24 03:31:41;;;;;;;23.13;9.45;;;;;;;3.60;100.00;102278.25;5095559;28;20371;-49
2023/05/24 03:34:07;;;;;;;18.45;8.75;;;;;;;3.62;100.00;102279.25;5094962;28;20103;-50
2023/05/24 03:36:32;;;;;;;20.25;8.23;;;;;;;3.59;100.00;102276.47;5094806;28;20065;-50
2023/05/24 03:38:57;;;;;;;16.98;8.13;;;;;;;3.53;100.00;102283.59;5095166;28;20024;-51
2023/05/24 03:41:23;;;;;;;17.67;7.40;;;;;;;3.45;100.00;102277.00;5094396;28;20020;-51
2023/05/24 03:43:49;;;;;;;21.20;7.75;;;;;;;3.43;100.00;102283.63;5095087;28;20103;-49
2023/05/24 03:46:15;;;;;;;16.42;7.95;;;;;;;3.31;100.00;102283.50;5095172;28;20059;-49
2023/05/24 03:48:40;;;;;;;18.95;8.48;;;;;;;3.44;100.00;102281.19;5094496;28;20157;-49
2023/05/24 03:51:05;;;;;;;21.02;9.07;;;;;;;3.47;100.00;102275.44;5095096;28;20024;-51
2023/05/24 03:53:31;;;;;;;19.40;9.02;;;;;;;3.49;100.00;102278.16;5094179;28;20092;-51
2023/05/24 03:55:56;;;;;;;21.92;9.93;;;;;;;3.49;100.00;102273.94;5094574;28;20039;-50
2023/05/24 03:58:21;;;;;;;17.20;9.55;;;;;;;3.60;100.00;102279.88;5094415;28;20035;-50
2023/05/24 04:00:46;;;;;;;22.92;9.60;;;;;;;3.55;100.00;102276.06;5094712;28;20040;-48
2023/05/24 04:03:12;;;;;;;20.92;10.48;;;;;;;3.78;100.00;102272.81;5094437;28;20040;-50
2023/05/24 04:05:37;;;;;;;27.13;11.48;;;;;;;3.78;100.00;102275.38;5094390;28;20028;-50
2023/05/24 04:08:03;;;;;;;22.20;10.68;;;;;;;3.79;100.00;102274.63;5094068;28;20020;-50
2023/05/24 04:10:28;;;;;;;25.33;10.77;;;;;;;3.94;100.00;102272.41;5094192;28;20103;-49
2023/05/24 04:12:55;;;;;;;18.45;10.13;;;;;;;3.83;100.00;102276.63;5094473;28;20035;-50
2023/05/24 04:15:21;;;;;;;22.80;10.23;;;;;;;3.83;100.00;102280.84;5093902;28;20028;-50
2023/05/24 04:17:47;;;;;;;17.42;9.00;;;;;;;3.82;100.00;102282.50;5094014;28;20484;-50
2023/05/24 04:20:12;;;;;;;20.85;10.35;;;;;;;3.98;100.00;102281.16;5094587;28;20026;-50
2023/05/24 04:22:38;;;;;;;26.40;12.30;;;;;;;4.02;100.00;102278.13;5093510;28;20548;-51
2023/05/24 04:25:04;;;;;;;26.10;12.18;;;;;;;4.15;100.00;102279.97;5093965;28;20034;-51
2023/05/24 04:27:30;;;;;;;23.70;11.65;;;;;;;4.26;100.00;102287.69;5093874;28;20024;-51
2023/05/24 04:29:55;;;;;;;28.95;12.60;;;;;;;4.40;100.00;102282.78;5093587;28;20047;-49
2023/05/24 04:32:22;;;;;;;27.15;11.52;;;;;;;4.39;100.00;102279.34;5093788;28;20055;-50
2023/05/24 04:34:47;;;;;;;26.90;11.70;;;;;;;4.53;100.00;102284.63;5094222;28;20107;-48
2023/05/24 04:37:16;;;;;;;26.42;11.40;;;;;;;4.50;100.00;102282.72;5093486;28;20127;-48
2023/05/24 04:39:43;;;;;;;27.10;11.27;;;;;;;4.54;100.00;102281.28;5093577;28;20055;-51
2023/05/24 04:42:08;;;;;;;27.30;11.75;;;;;;;4.66;100.00;102281.34;5093971;28;20035;-50
2023/05/24 04:44:34;;;;;;;22.67;10.68;;;;;;;4.67;100.00;102283.13;5092782;28;20372;-50
2023/05/24 04:47:01;;;;;;;28.63;11.07;;;;;;;4.80;100.00;102285.84;5093934;28;20027;-52
2023/05/24 04:49:26;;;;;;;29.05;12.25;;;;;;;4.92;100.00;102288.47;5093730;28;20035;-49
2023/05/24 04:51:52;;;;;;;31.50;13.63;;;;;;;5.01;100.00;102288.22;5093180;28;20024;-47
2023/05/24 04:54:17;;;;;;;31.63;12.45;;;;;;;5.13;100.00;102281.50;5093446;28;20028;-50
2023/05/24 04:56:42;;;;;;;26.92;12.13;;;;;;;5.19;100.00;102283.63;5093087;28;20111;-51
2023/05/24 04:59:08;;;;;;;32.00;12.80;;;;;;;5.25;100.00;102287.53;5093634;28;20020;-50
2023/05/24 05:01:34;;;;;;;29.15;12.93;;;;;;;5.35;100.00;102288.22;5093539;28;20060;-50
2023/05/24 05:04:03;;;;;;;33.67;12.52;;;;;;;5.40;100.00;102282.66;5093058;28;20759;-51
2023/05/24 05:06:28;;;;;;;32.50;12.38;;;;;;;5.54;100.00;102282.75;5093030;28;20028;-51
2023/05/24 05:08:53;;;;;;;31.10;11.95;;;;;;;5.63;100.00;102280.00;5093336;28;20030;-49
2023/05/24 05:11:19;;;;;;;31.25;12.48;;;;;;;5.71;100.00;102284.03;5092584;28;20077;-47
2023/05/24 05:13:44;;;;;;;29.45;12.27;;;;;;;5.77;100.00;102293.03;5093416;28;20423;-48
2023/05/24 05:16:10;;;;;;;27.42;12.13;;;;;;;5.91;100.00;102288.00;5093501;28;20024;-48
2023/05/24 05:18:36;;;;;;;30.42;13.07;;;;;;;5.97;100.00;102293.56;5092329;28;20044;-49
2023/05/24 05:21:02;;;;;;;31.00;12.60;;;;;;;6.01;100.00;102293.03;5093126;28;20073;-51
2023/05/24 05:23:27;;;;;;;26.20;12.02;;;;;;;6.14;100.00;102296.47;5093062;28;20036;-49
2023/05/24 05:25:53;;;;;;;33.47;13.55;;;;;;;6.17;100.00;102296.69;5092673;28;20480;-49
2023/05/24 05:28:19;;;;;;;23.58;12.35;;;;;;;6.32;100.00;102302.00;5092532;28;20039;-49
2023/05/24 05:30:44;;;;;;;29.27;12.88;;;;;;;6.39;100.00;102299.06;5093325;28;20024;-50
2023/05/24 05:33:10;;;;;;;35.97;14.48;;;;;;;6.50;100.00;102295.59;5092526;28;20061;-51
2023/05/24 05:35:35;;;;;;;34.40;13.82;;;;;;;6.57;100.00;102291.78;5092777;28;20032;-51
2023/05/24 05:38:00;;;;;;;35.30;15.25;;;;;;;6.69;100.00;102290.06;5093096;28;20020;-51
2023/05/24 05:40:26;;;;;;;36.50;14.02;;;;;;;6.74;100.00;102292.97;5092160;28;20479;-50
2023/05/24 05:42:51;;;;;;;38.15;14.48;;;;;;;6.88;100.00;102299.91;5093030;28;20035;-51
2023/05/24 05:45:16;;;;;;;33.28;14.13;;;;;;;6.98;100.00;102297.97;5092837;28;20032;-51
2023/05/24 05:47:42;;;;;;;35.00;14.77;;;;;;;7.08;100.00;102295.25;5092302;28;20032;-46
2023/05/24 05:50:08;;;;;;;32.60;13.63;;;;;;;7.16;100.00;102296.63;5092598;28;20020;-48
2023/05/24 05:52:33;;;;;;;32.38;13.45;;;;;;;7.29;100.00;102294.91;5092420;28;20077;-50
2023/05/24 05:54:59;;;;;;;34.63;14.23;;;;;;;7.45;100.00;102296.78;5092063;28;20030;-51
2023/05/24 05:57:24;;;;;;;35.78;14.90;;;;;;;7.50;100.00;102301.44;5092777;28;20021;-49
2023/05/24 05:59:50;;;;;;;37.17;13.77;;;;;;;7.62;100.00;102305.56;5092953;28;20368;-51
2023/05/24 06:02:17;;;;;;;36.22;13.98;;;;;;;7.73;100.00;102304.59;5091896;28;20024;-50
2023/05/24 06:04:43;;;;;;;34.63;13.00;;;;;;;7.82;100.00;102309.44;5093000;28;20119;-49
2023/05/24 06:07:08;;;;;;;36.50;14.35;;;;;;;7.95;100.00;102303.41;5092165;28;20111;-48
2023/05/24 06:09:33;;;;;;;36.42;14.88;;;;;;;8.11;100.00;102315.53;5092255;28;20036;-49
2023/05/24 06:11:58;;;;;;;33.40;14.48;;;;;;;8.18;100.00;102310.91;5092802;28;20024;-48
2023/05/24 06:14:25;;;;;;;37.08;14.38;;;;;;;8.30;100.00;102315.94;5092063;28;20032;-48
2023/05/24 06:16:53;;;;;;;31.90;12.93;;;;;;;8.32;100.00;102310.88;5092439;28;20020;-51
2023/05/24 06:19:18;;;;;;;33.38;12.48;;;;;;;8.41;100.00;102319.16;5092480;28;20021;-50
2023/05/24 06:21:46;;;;;;;36.83;13.32;;;;;;;8.46;100.00;102316.94;5092178;28;20051;-48
2023/05/24 06:24:20;;;;;;;35.80;12.57;;;;;;;8.54;100.00;102321.72;5092378;28;20021;-49
2023/05/24 06:26:51;;;;;;;35.28;13.07;;;;;;;8.67;100.00;102327.63;5092526;28;20468;-49
2023/05/24 06:29:19;;;;;;;39.88;13.57;;;;;;;8.76;100.00;102325.59;5091942;28;20031;-48
2023/05/24 06:31:46;;;;;;;34.60;13.55;;;;;;;8.89;100.00;102328.09;5092358;28;20531;-51
2023/05/24 06:34:11;;;;;;;30.00;13.95;;;;;;;8.99;100.00;102320.97;5092588;28;20040;-51
2023/05/24 06:36:41;;;;;;;33.10;13.77;;;;;;;9.14;100.00;102326.13;5091670;28;20434;-51
2023/05/24 06:39:07;;;;;;;42.75;15.48;;;;;;;9.41;100.00;102324.28;5092415;28;20051;-50
2023/05/24 06:41:32;;;;;;;30.73;11.93;;;;;;;9.45;100.00;102318.53;5092386;28;20102;-50
2023/05/24 06:43:58;;;;;;;28.15;13.15;;;;;;;9.80;100.00;102322.22;5091847;28;20027;-51
2023/05/24 06:46:23;;;;;;;36.15;12.23;;;;;;;9.92;100.00;102318.59;5092152;28;20466;-48
2023/05/24 06:48:48;;;;;;;29.88;11.73;;;;;;;9.93;100.00;102315.19;5092491;28;20024;-48
2023/05/24 06:51:14;;;;;;;33.05;11.73;;;;;;;10.01;100.00;102317.38;5091550;28;20512;-51
2023/05/24 06:53:39;;;;;;;27.33;10.82;;;;;;;10.00;100.00;102322.47;5092291;28;20034;-51
2023/05/24 06:56:05;;;;;;;29.95;11.38;;;;;;;10.06;100.00;102322.81;5092466;28;20021;-51
2023/05/24 06:58:30;;;;;;;30.55;11.02;;;;;;;10.17;100.00;102328.53;5091372;28;20387;-51
2023/05/24 07:00:56;;;;;;;27.27;10.00;;;;;;;10.25;100.00;102328.97;5092377;28;20480;-50
2023/05/24 07:03:22;;;;;;;23.65;10.20;;;;;;;10.28;100.00;102324.88;5094781;28;20035;-50
2023/05/24 07:05:47;;;;;;;31.73;10.90;;;;;;;10.34;100.00;102321.72;5095607;28;20024;-51
2023/05/24 07:08:12;;;;;;;28.85;9.60;;;;;;;10.34;100.00;102316.56;5095744;28;20371;-51
2023/05/24 07:10:38;;;;;;;26.38;9.52;;;;;;;10.54;100.00;102321.13;5095176;28;20029;-51
2023/05/24 07:13:03;;;;;;;32.00;9.85;;;;;;;10.70;100.00;102317.69;5095603;28;20044;-51
2023/05/24 07:15:29;;;;;;;26.98;9.52;;;;;;;10.69;100.00;102325.31;5095499;28;20050;-47
2023/05/24 07:17:54;;;;;;;25.30;8.95;;;;;;;10.76;100.00;102326.56;5095013;28;20040;-52
2023/05/24 07:20:20;;;;;;;25.08;7.97;;;;;;;10.97;100.00;102325.09;5095006;28;20040;-50
2023/05/24 07:22:45;;;;;;;22.40;6.97;;;;;;;11.18;98.24;102327.91;5095473;28;20032;-48
2023/05/24 07:25:10;;;;;;;26.60;8.38;;;;;;;11.42;97.03;102329.94;5095098;28;20384;-50
2023/05/24 07:27:36;;;;;;;25.35;7.75;;;;;;;11.70;97.67;102323.56;5095097;28;20051;-50
2023/05/24 07:30:02;;;;;;;25.90;8.05;;;;;;;11.94;95.99;102333.28;5095467;28;20024;-52
2023/05/24 07:32:28;;;;;;;22.67;7.20;;;;;;;12.17;93.03;102327.56;5094716;28;20074;-46
2023/05/24 07:34:53;;;;;;;21.83;6.93;;;;;;;12.56;92.76;102331.88;5095111;28;20056;-46
2023/05/24 07:37:19;;;;;;;19.15;6.57;;;;;;;12.77;89.49;102337.16;5095178;28;20035;-51
2023/05/24 07:39:44;;;;;;;17.27;5.88;;;;;;;12.98;84.24;102336.34;5094909;28;20051;-51
2023/05/24 07:42:09;;;;;;;18.13;5.85;;;;;;;12.95;80.16;102336.19;5095076;28;20028;-50
2023/05/24 07:44:35;;;;;;;25.55;7.18;;;;;;;12.83;82.76;102339.13;5094979;28;20024;-51
2023/05/24 07:47:01;;;;;;;23.27;6.68;;;;;;;12.66;82.50;102339.25;5094236;28;20450;-51
2023/05/24 07:49:27;;;;;;;19.50;6.40;;;;;;;12.81;84.79;102340.78;5094821;28;20027;-49
2023/05/24 07:51:55;;;;;;;21.85;6.95;;;;;;;12.88;83.15;102334.16;5094997;28;20024;-51
2023/05/24 07:54:21;;;;;;;19.33;6.88;;;;;;;12.89;81.55;102333.34;5093817;28;20028;-47
2023/05/24 07:56:46;;;;;;;23.33;7.85;;;;;;;12.84;83.10;102327.94;5095060;28;20027;-48
2023/05/24 07:59:11;;;;;;;25.23;7.80;;;;;;;12.73;83.28;102329.19;5094883;28;20032;-50
2023/05/24 08:01:37;;;;;;;19.33;6.97;;;;;;;12.72;82.73;102338.66;5093888;28;20031;-47
2023/05/24 08:04:02;;;;;;;22.35;7.30;;;;;;;12.90;84.66;102338.59;5094794;28;20022;-51
2023/05/24 08:06:28;;;;;;;20.92;8.10;;;;;;;12.68;81.53;102332.44;5094238;28;20034;-50
2023/05/24 08:08:54;;;;;;;21.27;6.63;;;;;;;12.72;81.38;102336.06;5094153;28;20067;-50
2023/05/24 08:11:19;;;;;;;21.50;6.90;;;;;;;12.68;81.20;102326.41;5094496;28;20055;-49
2023/05/24 08:13:45;;;;;;;17.88;6.47;;;;;;;12.91;81.34;102326.50;5093457;28;20364;-48
2023/05/24 08:16:11;;;;;;;21.15;7.18;;;;;;;13.20;80.38;102334.69;5094254;28;20053;-50
2023/05/24 08:18:36;;;;;;;24.40;6.90;;;;;;;13.37;78.41;102325.94;5093939;28;20036;-49
2023/05/24 08:21:01;;;;;;;21.42;6.13;;;;;;;13.39;77.39;102326.88;5093911;28;20043;-50
2023/05/24 08:23:28;;;;;;;17.95;5.85;;;;;;;13.58;77.16;102330.22;5094034;28;20016;-51
2023/05/24 08:25:54;;;;;;;19.43;5.90;;;;;;;13.52;76.59;102329.97;5094391;28;20024;-50
2023/05/24 08:28:21;;;;;;;18.48;5.82;;;;;;;13.73;77.64;102329.97;5093425;28;20051;-47
2023/05/24 08:30:46;;;;;;;21.50;6.10;;;;;;;13.97;77.07;102328.38;5094154;28;20111;-53
2023/05/24 08:33:12;;;;;;;17.52;5.88;;;;;;;14.07;74.38;102329.63;5094125;28;20073;-50
2023/05/24 08:35:37;;;;;;;17.30;5.22;;;;;;;14.19;71.78;102325.72;5093135;28;20035;-47
2023/05/24 08:38:02;;;;;;;20.08;5.82;;;;;;;14.24;71.44;102316.41;5094021;28;20455;-52
2023/05/24 08:40:28;;;;;;;17.48;5.63;;;;;;;14.47;71.69;102323.34;5093870;28;20027;-52
2023/05/24 08:42:55;;;;;;;23.35;5.82;;;;;;;14.86;70.18;102318.69;5093490;28;20395;-53
2023/05/24 08:45:21;;;;;;;19.83;5.80;;;;;;;14.84;69.75;102312.56;5093477;28;20024;-52
2023/05/24 08:47:48;;;;;;;17.65;5.03;;;;;;;14.62;69.08;102315.22;5093889;28;20048;-53
2023/05/24 08:50:14;;;;;;;20.77;5.28;;;;;;;14.55;66.21;102315.84;5093075;28;20480;-53
2023/05/24 08:52:41;;;;;;;18.20;5.63;;;;;;;14.62;67.81;102316.97;5093422;28;20028;-53
2023/05/24 08:55:08;;;;;;;18.30;5.03;;;;;;;15.01;69.25;102313.16;5093936;28;20123;-53
2023/05/24 08:57:38;;;;;;;21.60;5.37;;;;;;;15.15;68.42;102312.78;5092640;28;20467;-53
2023/05/24 09:00:05;;;;;;;16.10;4.88;;;;;;;15.11;64.70;102312.66;5093568;28;20811;-52
2023/05/24 09:02:31;;;;;;;15.13;5.13;;;;;;;15.32;65.29;102312.50;5093339;28;20020;-52
2023/05/24 09:04:57;;;;;;;16.42;5.35;;;;;;;15.17;61.90;102310.28;5093110;28;20077;-54
2023/05/24 09:07:23;;;;;;;19.50;6.32;;;;;;;15.53;65.63;102301.03;5093434;28;20028;-51
2023/05/24 09:10:04;;;;;;;15.63;5.25;;;;;;;15.52;65.64;102304.47;5093401;28;20057;-54
2023/05/24 09:12:31;;;;;;;14.93;5.18;;;;;;;15.37;65.58;102310.94;5092927;28;20055;-52
2023/05/24 09:14:57;;;;;;;17.15;5.90;;;;;;;14.99;63.92;102310.53;5093355;28;20058;-54
2023/05/24 09:17:23;;;;;;;13.38;5.10;;;;;;;14.92;63.53;102300.75;5092372;28;20101;-53
2023/05/24 09:19:50;;;;;;;16.15;4.55;;;;;;;15.06;65.36;102306.41;5093207;28;20040;-50
2023/05/24 09:22:22;;;;;;;15.37;4.53;;;;;;;15.40;66.05;102305.84;5093088;28;20032;-53
2023/05/24 09:24:48;;;;;;;16.33;5.45;;;;;;;15.23;63.54;102307.00;5092598;28;20050;-54
2023/05/24 09:27:15;;;;;;;15.82;5.28;;;;;;;14.95;63.31;102300.84;5092534;28;20391;-53
2023/05/24 09:29:41;;;;;;;14.68;4.78;;;;;;;14.81;61.38;102310.75;5093161;28;20020;-51
2023/05/24 09:32:07;;;;;;;13.40;4.20;;;;;;;14.57;62.34;102297.75;5092781;28;20024;-53
2023/05/24 09:34:40;;;;;;;17.73;5.22;;;;;;;14.31;65.46;102306.31;5092827;28;20121;-53
2023/05/24 09:37:12;;;;;;;14.68;4.97;;;;;;;14.47;63.91;102306.88;5093119;28;20032;-53
2023/05/24 09:39:40;;;;;;;15.35;4.93;;;;;;;14.91;63.97;102304.16;5092063;28;20020;-48
2023/05/24 09:42:06;;;;;;;12.73;4.45;;;;;;;15.47;61.30;102306.94;5092589;28;20016;-53
2023/05/24 09:44:31;;;;;;;14.90;4.35;;;;;;;16.08;61.37;102302.78;5092780;28;20161;-50
2023/05/24 09:47:03;;;;;;;12.48;4.13;;;;;;;16.36;56.92;102292.31;5092267;28;20032;-50
2023/05/24 09:49:29;;;;;;;14.20;4.93;;;;;;;16.60;55.85;102299.94;5093009;28;20047;-53
2023/05/24 09:51:55;;;;;;;15.43;4.70;;;;;;;17.18;56.29;102298.03;5093112;28;20107;-51
2023/05/24 09:54:20;;;;;;;15.70;4.60;;;;;;;17.38;54.65;102290.72;5091884;28;20150;-53
2023/05/24 09:56:45;;;;;;;12.73;4.22;;;;;;;16.95;53.13;102300.94;5092795;28;20028;-50
2023/05/24 09:59:11;;;;;;;13.07;4.53;;;;;;;16.48;52.88;102287.47;5092524;28;20107;-53
2023/05/24 10:01:37;;;;;;;15.90;4.50;;;;;;;16.29;54.39;102293.88;5092292;28;20028;-53
2023/05/24 10:04:05;;;;;;;14.60;4.35;;;;;;;15.83;54.65;102290.78;5092724;28;20035;-53
2023/05/24 10:06:36;;;;;;;13.88;4.43;;;;;;;15.98;57.22;102298.16;5091849;28;20365;-53
2023/05/24 10:09:03;;;;;;;14.10;4.25;;;;;;;17.05;56.84;102293.38;5092612;28;20070;-52
2023/05/24 10:11:30;;;;;;;15.95;4.22;;;;;;;17.72;50.83;102288.91;5092399;28;20031;-53
2023/05/24 10:13:56;;;;;;;16.73;4.77;;;;;;;18.64;48.86;102285.66;5092305;28;20020;-52
2023/05/24 10:16:21;;;;;;;14.15;4.25;;;;;;;19.84;47.79;102294.69;5092413;28;20495;-53
2023/05/24 10:18:47;;;;;;;13.30;4.53;;;;;;;20.88;41.76;102281.09;5092575;28;20064;-53
2023/05/24 10:21:12;;;;;;;14.00;4.13;;;;;;;21.04;41.93;102284.75;5092064;28;20028;-53
2023/05/24 10:23:41;;;;;;;11.43;4.10;;;;;;;21.32;40.20;102274.50;5092234;28;20110;-51
2023/05/24 10:26:10;;;;;;;10.90;3.85;;;;;;;20.03;41.10;102288.81;5092441;28;20475;-52
2023/05/24 10:28:41;;;;;;;15.40;4.53;;;;;;;18.71;43.49;102288.41;5091535;28;20020;-52
2023/05/24 10:31:11;;;;;;;10.27;4.00;;;;;;;18.02;46.50;102284.41;5092626;28;20472;-51
2023/05/24 10:33:38;;;;;;;14.00;4.43;;;;;;;17.57;47.23;102285.94;5092143;28;20407;-52
2023/05/24 10:36:06;;;;;;;12.43;4.13;;;;;;;17.38;49.33;102290.72;5091847;28;20023;-52
2023/05/24 10:38:32;;;;;;;12.00;4.05;;;;;;;17.56;47.99;102284.22;5095560;28;20020;-52
2023/05/24 10:40:58;;;;;;;12.35;4.25;;;;;;;17.92;48.62;102288.47;5096302;28;20375;-52
2023/05/24 10:43:24;;;;;;;13.90;4.43;;;;;;;17.89;47.26;102284.06;5095413;28;20028;-52
2023/05/24 10:45:50;;;;;;;11.63;4.10;;;;;;;17.99;47.67;102280.00;5096153;28;20414;-52
2023/05/24 10:48:15;;;;;;;11.02;3.60;;;;;;;17.91;46.92;102281.53;5095960;28;20046;-52
2023/05/24 10:50:42;;;;;;;10.55;3.70;;;;;;;17.83;48.17;102283.06;5095505;28;20028;-53
2023/05/24 10:53:15;;;;;;;12.85;4.00;;;;;;;17.66;48.80;102280.09;5095942;28;20028;-52
2023/05/24 10:55:57;;;;;;;11.10;3.67;;;;;;;17.42;47.79;102279.53;5095344;28;20832;-53
2023/05/24 10:58:54;;;;;;;15.60;3.97;;;;;;;17.25;49.70;102281.72;5095740;28;20016;-52
2023/05/24 11:01:32;;;;;;;14.13;3.72;;;;;;;16.99;49.71;102283.69;5095580;28;20492;-52
2023/05/24 11:04:13;;;;;;;9.25;3.45;;;;;;;16.65;48.94;102281.88;5095069;28;20476;-52
2023/05/24 11:06:54;;;;;;;11.27;3.40;;;;;;;16.53;48.88;102277.22;5095412;28;20119;-53
2023/05/24 11:09:20;;;;;;;15.80;3.58;;;;;;;16.44;49.69;102277.81;5095546;28;20372;-48
2023/05/24 11:11:48;;;;;;;12.05;4.15;;;;;;;16.42;51.21;102277.78;5095028;28;20118;-53
2023/05/24 11:14:18;;;;;;;14.32;4.05;;;;;;;16.40;51.71;102279.44;5095847;28;20062;-52